sensor_id;sensor_type;location;lat;lon;timestamp;P1;durP1;ratioP1;P2;durP2;ratioP2
52268;SDS011;38224;50.950;4.100;2022-12-13T00:00:38;55.20;;;24.70;;
52268;SDS011;38224;50.950;4.100;2022-12-13T00:03:03;50.53;;;23.92;;
52268;SDS011;38224;50.950;4.100;2022-12-13T00:05:30;66.88;;;27.48;;
52268;SDS011;38224;50.950;4.100;2022-12-13T00:07:57;65.00;;;28.25;;
52268;SDS011;38224;50.950;4.100;2022-12-13T00:10:23;64.03;;;25.95;;
52268;SDS011;38224;50.950;4.100;2022-12-13T00:12:48;53.70;;;25.03;;
52268;SDS011;38224;50.950;4.100;2022-12-13T00:15:13;58.10;;;25.30;;
52268;SDS011;38224;50.950;4.100;2022-12-13T00:17:38;55.22;;;25.92;;
52268;SDS011;38224;50.950;4.100;2022-12-13T00:20:04;53.92;;;25.10;;
52268;SDS011;38224;50.950;4.100;2022-12-13T00:22:29;54.03;;;24.90;;
52268;SDS011;38224;50.950;4.100;2022-12-13T00:24:54;54.17;;;24.83;;
52268;SDS011;38224;50.950;4.100;2022-12-13T00:27:22;45.17;;;22.63;;
52268;SDS011;38224;50.950;4.100;2022-12-13T00:29:48;51.58;;;24.50;;
52268;SDS011;38224;50.950;4.100;2022-12-13T00:32:13;59.80;;;24.47;;
52268;SDS011;38224;50.950;4.100;2022-12-13T00:34:38;55.50;;;24.63;;
52268;SDS011;38224;50.950;4.100;2022-12-13T00:37:03;52.53;;;24.13;;
52268;SDS011;38224;50.950;4.100;2022-12-13T00:39:28;49.80;;;23.00;;
52268;SDS011;38224;50.950;4.100;2022-12-13T00:41:54;52.92;;;23.75;;
52268;SDS011;38224;50.950;4.100;2022-12-13T00:44:19;53.85;;;24.58;;
52268;SDS011;38224;50.950;4.100;2022-12-13T00:46:45;56.22;;;24.70;;
52268;SDS011;38224;50.950;4.100;2022-12-13T00:49:10;61.83;;;24.55;;
52268;SDS011;38224;50.950;4.100;2022-12-13T00:51:36;52.83;;;23.48;;
52268;SDS011;38224;50.950;4.100;2022-12-13T00:54:01;60.72;;;25.13;;
52268;SDS011;38224;50.950;4.100;2022-12-13T00:56:28;48.75;;;22.60;;
52268;SDS011;38224;50.950;4.100;2022-12-13T00:58:53;55.70;;;24.70;;
52268;SDS011;38224;50.950;4.100;2022-12-13T01:01:23;56.78;;;24.40;;
52268;SDS011;38224;50.950;4.100;2022-12-13T01:03:49;63.08;;;24.75;;
52268;SDS011;38224;50.950;4.100;2022-12-13T01:06:16;67.97;;;26.67;;
52268;SDS011;38224;50.950;4.100;2022-12-13T01:08:42;56.05;;;24.77;;
52268;SDS011;38224;50.950;4.100;2022-12-13T01:11:07;56.42;;;23.45;;
52268;SDS011;38224;50.950;4.100;2022-12-13T01:13:33;67.40;;;25.42;;
52268;SDS011;38224;50.950;4.100;2022-12-13T01:16:00;58.28;;;25.42;;
52268;SDS011;38224;50.950;4.100;2022-12-13T01:18:25;56.10;;;24.35;;
52268;SDS011;38224;50.950;4.100;2022-12-13T01:21:00;60.37;;;25.90;;
52268;SDS011;38224;50.950;4.100;2022-12-13T01:23:26;63.05;;;27.65;;
52268;SDS011;38224;50.950;4.100;2022-12-13T01:25:51;58.47;;;24.95;;
52268;SDS011;38224;50.950;4.100;2022-12-13T01:28:16;62.28;;;28.33;;
52268;SDS011;38224;50.950;4.100;2022-12-13T01:30:42;60.40;;;27.05;;
52268;SDS011;38224;50.950;4.100;2022-12-13T01:33:07;67.35;;;27.30;;
52268;SDS011;38224;50.950;4.100;2022-12-13T01:35:32;61.20;;;27.50;;
52268;SDS011;38224;50.950;4.100;2022-12-13T01:37:58;67.22;;;27.17;;
52268;SDS011;38224;50.950;4.100;2022-12-13T01:40:23;60.87;;;28.27;;
52268;SDS011;38224;50.950;4.100;2022-12-13T01:42:48;73.25;;;29.65;;
52268;SDS011;38224;50.950;4.100;2022-12-13T01:45:27;65.32;;;27.83;;
52268;SDS011;38224;50.950;4.100;2022-12-13T01:47:56;65.25;;;28.20;;
52268;SDS011;38224;50.950;4.100;2022-12-13T01:50:24;65.20;;;29.70;;
52268;SDS011;38224;50.950;4.100;2022-12-13T01:52:50;68.07;;;29.67;;
52268;SDS011;38224;50.950;4.100;2022-12-13T01:55:17;68.32;;;30.83;;
52268;SDS011;38224;50.950;4.100;2022-12-13T01:57:44;69.97;;;30.77;;
52268;SDS011;38224;50.950;4.100;2022-12-13T02:00:11;63.90;;;30.52;;
52268;SDS011;38224;50.950;4.100;2022-12-13T02:02:37;69.78;;;30.73;;
52268;SDS011;38224;50.950;4.100;2022-12-13T02:05:04;77.43;;;30.63;;
52268;SDS011;38224;50.950;4.100;2022-12-13T02:07:31;66.90;;;31.38;;
52268;SDS011;38224;50.950;4.100;2022-12-13T02:09:58;75.55;;;31.52;;
52268;SDS011;38224;50.950;4.100;2022-12-13T02:12:25;77.95;;;32.85;;
52268;SDS011;38224;50.950;4.100;2022-12-13T02:14:51;74.47;;;32.08;;
52268;SDS011;38224;50.950;4.100;2022-12-13T02:32:36;74.00;;;32.25;;
52268;SDS011;38224;50.950;4.100;2022-12-13T02:35:05;78.20;;;34.00;;
52268;SDS011;38224;50.950;4.100;2022-12-13T02:37:41;74.75;;;33.30;;
52268;SDS011;38224;50.950;4.100;2022-12-13T02:40:45;74.88;;;33.95;;
52268;SDS011;38224;50.950;4.100;2022-12-13T02:43:15;76.60;;;34.28;;
52268;SDS011;38224;50.950;4.100;2022-12-13T02:45:44;76.35;;;33.03;;
52268;SDS011;38224;50.950;4.100;2022-12-13T02:48:11;73.65;;;33.35;;
52268;SDS011;38224;50.950;4.100;2022-12-13T02:50:37;83.05;;;35.65;;
52268;SDS011;38224;50.950;4.100;2022-12-13T02:53:03;79.55;;;33.80;;
52268;SDS011;38224;50.950;4.100;2022-12-13T02:55:29;80.45;;;33.72;;
52268;SDS011;38224;50.950;4.100;2022-12-13T02:57:56;75.47;;;34.70;;
52268;SDS011;38224;50.950;4.100;2022-12-13T03:00:29;77.82;;;33.55;;
52268;SDS011;38224;50.950;4.100;2022-12-13T03:05:43;73.40;;;33.05;;
52268;SDS011;38224;50.950;4.100;2022-12-13T03:13:25;75.28;;;33.60;;
52268;SDS011;38224;50.950;4.100;2022-12-13T03:16:25;68.82;;;33.15;;
52268;SDS011;38224;50.950;4.100;2022-12-13T03:18:48;76.22;;;32.15;;
52268;SDS011;38224;50.950;4.100;2022-12-13T03:21:14;71.90;;;33.08;;
52268;SDS011;38224;50.950;4.100;2022-12-13T03:23:39;71.05;;;31.85;;
52268;SDS011;38224;50.950;4.100;2022-12-13T03:26:08;71.55;;;32.15;;
52268;SDS011;38224;50.950;4.100;2022-12-13T03:28:35;70.30;;;30.45;;
52268;SDS011;38224;50.950;4.100;2022-12-13T03:31:00;67.15;;;31.55;;
52268;SDS011;38224;50.950;4.100;2022-12-13T03:33:25;73.35;;;31.95;;
52268;SDS011;38224;50.950;4.100;2022-12-13T03:35:51;66.45;;;30.67;;
52268;SDS011;38224;50.950;4.100;2022-12-13T03:38:16;72.90;;;32.67;;
52268;SDS011;38224;50.950;4.100;2022-12-13T03:40:42;69.57;;;31.08;;
52268;SDS011;38224;50.950;4.100;2022-12-13T03:43:07;62.55;;;29.30;;
52268;SDS011;38224;50.950;4.100;2022-12-13T03:45:32;72.65;;;31.73;;
52268;SDS011;38224;50.950;4.100;2022-12-13T03:47:58;65.33;;;28.63;;
52268;SDS011;38224;50.950;4.100;2022-12-13T03:50:23;78.90;;;32.20;;
52268;SDS011;38224;50.950;4.100;2022-12-13T03:52:48;64.57;;;29.67;;
52268;SDS011;38224;50.950;4.100;2022-12-13T03:55:15;71.15;;;32.63;;
52268;SDS011;38224;50.950;4.100;2022-12-13T03:57:41;72.75;;;30.65;;
52268;SDS011;38224;50.950;4.100;2022-12-13T04:00:06;65.87;;;30.53;;
52268;SDS011;38224;50.950;4.100;2022-12-13T04:02:32;67.07;;;31.42;;
52268;SDS011;38224;50.950;4.100;2022-12-13T04:04:57;67.87;;;29.30;;
52268;SDS011;38224;50.950;4.100;2022-12-13T04:07:22;64.30;;;29.07;;
52268;SDS011;38224;50.950;4.100;2022-12-13T04:09:47;68.70;;;30.10;;
52268;SDS011;38224;50.950;4.100;2022-12-13T04:12:12;67.20;;;29.52;;
52268;SDS011;38224;50.950;4.100;2022-12-13T04:14:56;74.10;;;28.92;;
52268;SDS011;38224;50.950;4.100;2022-12-13T04:17:22;61.88;;;29.13;;
52268;SDS011;38224;50.950;4.100;2022-12-13T04:19:47;63.28;;;29.45;;
52268;SDS011;38224;50.950;4.100;2022-12-13T04:22:12;63.83;;;29.13;;
52268;SDS011;38224;50.950;4.100;2022-12-13T04:24:37;67.40;;;30.13;;
52268;SDS011;38224;50.950;4.100;2022-12-13T04:27:02;61.67;;;28.27;;
52268;SDS011;38224;50.950;4.100;2022-12-13T04:29:28;63.10;;;27.40;;
52268;SDS011;38224;50.950;4.100;2022-12-13T04:31:53;62.33;;;28.50;;
52268;SDS011;38224;50.950;4.100;2022-12-13T04:34:18;60.47;;;28.70;;
52268;SDS011;38224;50.950;4.100;2022-12-13T04:36:44;60.93;;;27.77;;
52268;SDS011;38224;50.950;4.100;2022-12-13T04:39:09;61.00;;;26.90;;
52268;SDS011;38224;50.950;4.100;2022-12-13T04:41:35;58.35;;;27.90;;
52268;SDS011;38224;50.950;4.100;2022-12-13T04:44:00;62.10;;;28.05;;
52268;SDS011;38224;50.950;4.100;2022-12-13T04:46:26;54.67;;;27.13;;
52268;SDS011;38224;50.950;4.100;2022-12-13T04:48:51;62.05;;;27.45;;
52268;SDS011;38224;50.950;4.100;2022-12-13T04:51:16;57.30;;;26.67;;
52268;SDS011;38224;50.950;4.100;2022-12-13T04:53:41;61.53;;;28.40;;
52268;SDS011;38224;50.950;4.100;2022-12-13T04:56:07;60.90;;;25.50;;
52268;SDS011;38224;50.950;4.100;2022-12-13T04:58:32;58.75;;;25.23;;
52268;SDS011;38224;50.950;4.100;2022-12-13T05:00:58;61.95;;;26.10;;
52268;SDS011;38224;50.950;4.100;2022-12-13T05:03:24;58.15;;;26.05;;
52268;SDS011;38224;50.950;4.100;2022-12-13T05:05:49;58.10;;;26.48;;
52268;SDS011;38224;50.950;4.100;2022-12-13T05:08:15;53.40;;;26.73;;
52268;SDS011;38224;50.950;4.100;2022-12-13T05:10:40;59.22;;;27.23;;
52268;SDS011;38224;50.950;4.100;2022-12-13T05:13:05;54.65;;;25.55;;
52268;SDS011;38224;50.950;4.100;2022-12-13T05:15:31;59.78;;;26.58;;
52268;SDS011;38224;50.950;4.100;2022-12-13T05:18:00;59.75;;;26.58;;
52268;SDS011;38224;50.950;4.100;2022-12-13T05:20:26;47.15;;;24.40;;
52268;SDS011;38224;50.950;4.100;2022-12-13T05:22:51;62.13;;;27.05;;
52268;SDS011;38224;50.950;4.100;2022-12-13T05:25:19;72.70;;;33.03;;
52268;SDS011;38224;50.950;4.100;2022-12-13T05:27:44;58.60;;;25.70;;
52268;SDS011;38224;50.950;4.100;2022-12-13T05:30:09;50.37;;;25.47;;
52268;SDS011;38224;50.950;4.100;2022-12-13T05:32:35;55.97;;;25.65;;
52268;SDS011;38224;50.950;4.100;2022-12-13T05:35:03;62.85;;;25.55;;
52268;SDS011;38224;50.950;4.100;2022-12-13T05:37:28;55.28;;;26.85;;
52268;SDS011;38224;50.950;4.100;2022-12-13T05:39:54;58.50;;;25.77;;
52268;SDS011;38224;50.950;4.100;2022-12-13T05:42:19;59.73;;;26.63;;
52268;SDS011;38224;50.950;4.100;2022-12-13T05:44:44;48.80;;;25.58;;
52268;SDS011;38224;50.950;4.100;2022-12-13T05:47:09;55.23;;;26.70;;
52268;SDS011;38224;50.950;4.100;2022-12-13T05:49:35;55.90;;;28.73;;
52268;SDS011;38224;50.950;4.100;2022-12-13T05:52:00;53.93;;;26.57;;
52268;SDS011;38224;50.950;4.100;2022-12-13T05:54:25;65.25;;;26.17;;
52268;SDS011;38224;50.950;4.100;2022-12-13T05:56:51;63.25;;;26.42;;
52268;SDS011;38224;50.950;4.100;2022-12-13T05:59:16;70.50;;;26.13;;
52268;SDS011;38224;50.950;4.100;2022-12-13T06:01:41;49.40;;;24.23;;
52268;SDS011;38224;50.950;4.100;2022-12-13T06:04:06;48.03;;;23.53;;
52268;SDS011;38224;50.950;4.100;2022-12-13T06:06:32;51.23;;;23.70;;
52268;SDS011;38224;50.950;4.100;2022-12-13T06:08:57;57.33;;;24.13;;
52268;SDS011;38224;50.950;4.100;2022-12-13T06:11:23;53.92;;;24.80;;
52268;SDS011;38224;50.950;4.100;2022-12-13T06:13:49;49.80;;;24.48;;
52268;SDS011;38224;50.950;4.100;2022-12-13T06:16:14;53.15;;;22.45;;
52268;SDS011;38224;50.950;4.100;2022-12-13T06:18:39;53.03;;;23.97;;
52268;SDS011;38224;50.950;4.100;2022-12-13T06:21:05;55.17;;;24.83;;
52268;SDS011;38224;50.950;4.100;2022-12-13T06:23:31;52.75;;;24.77;;
52268;SDS011;38224;50.950;4.100;2022-12-13T06:25:56;55.63;;;24.40;;
52268;SDS011;38224;50.950;4.100;2022-12-13T06:28:22;52.05;;;24.55;;
52268;SDS011;38224;50.950;4.100;2022-12-13T06:30:47;52.22;;;23.70;;
52268;SDS011;38224;50.950;4.100;2022-12-13T06:33:16;52.78;;;24.75;;
52268;SDS011;38224;50.950;4.100;2022-12-13T06:35:41;48.08;;;24.08;;
52268;SDS011;38224;50.950;4.100;2022-12-13T06:38:07;55.30;;;25.30;;
52268;SDS011;38224;50.950;4.100;2022-12-13T06:40:32;56.20;;;24.83;;
52268;SDS011;38224;50.950;4.100;2022-12-13T06:42:57;53.47;;;25.30;;
52268;SDS011;38224;50.950;4.100;2022-12-13T06:45:24;54.88;;;24.02;;
52268;SDS011;38224;50.950;4.100;2022-12-13T06:47:49;46.80;;;23.30;;
52268;SDS011;38224;50.950;4.100;2022-12-13T06:50:14;54.53;;;24.50;;
52268;SDS011;38224;50.950;4.100;2022-12-13T06:52:40;52.40;;;25.15;;
52268;SDS011;38224;50.950;4.100;2022-12-13T06:55:05;59.90;;;24.03;;
52268;SDS011;38224;50.950;4.100;2022-12-13T06:57:31;49.20;;;24.10;;
52268;SDS011;38224;50.950;4.100;2022-12-13T06:59:57;54.83;;;24.23;;
52268;SDS011;38224;50.950;4.100;2022-12-13T07:02:22;59.50;;;25.00;;
52268;SDS011;38224;50.950;4.100;2022-12-13T07:04:47;52.97;;;26.30;;
52268;SDS011;38224;50.950;4.100;2022-12-13T07:07:13;55.35;;;26.30;;
52268;SDS011;38224;50.950;4.100;2022-12-13T07:09:38;52.77;;;24.87;;
52268;SDS011;38224;50.950;4.100;2022-12-13T07:12:03;52.60;;;24.77;;
52268;SDS011;38224;50.950;4.100;2022-12-13T07:14:28;61.17;;;26.02;;
52268;SDS011;38224;50.950;4.100;2022-12-13T07:16:54;58.10;;;29.43;;
52268;SDS011;38224;50.950;4.100;2022-12-13T07:19:19;49.30;;;25.25;;
52268;SDS011;38224;50.950;4.100;2022-12-13T07:21:44;54.07;;;24.27;;
52268;SDS011;38224;50.950;4.100;2022-12-13T07:24:09;61.95;;;30.90;;
52268;SDS011;38224;50.950;4.100;2022-12-13T07:26:35;113.03;;;52.35;;
52268;SDS011;38224;50.950;4.100;2022-12-13T07:29:02;64.10;;;27.75;;
52268;SDS011;38224;50.950;4.100;2022-12-13T07:31:27;61.05;;;27.35;;
52268;SDS011;38224;50.950;4.100;2022-12-13T07:33:52;58.33;;;26.30;;
52268;SDS011;38224;50.950;4.100;2022-12-13T07:36:19;53.03;;;25.03;;
52268;SDS011;38224;50.950;4.100;2022-12-13T07:38:49;55.90;;;25.63;;
52268;SDS011;38224;50.950;4.100;2022-12-13T07:41:14;53.58;;;26.58;;
52268;SDS011;38224;50.950;4.100;2022-12-13T07:43:39;48.77;;;25.23;;
52268;SDS011;38224;50.950;4.100;2022-12-13T07:46:05;56.38;;;26.75;;
52268;SDS011;38224;50.950;4.100;2022-12-13T07:48:31;49.28;;;24.73;;
52268;SDS011;38224;50.950;4.100;2022-12-13T07:51:00;63.25;;;25.92;;
52268;SDS011;38224;50.950;4.100;2022-12-13T07:53:25;51.55;;;25.10;;
52268;SDS011;38224;50.950;4.100;2022-12-13T07:55:51;55.28;;;25.40;;
52268;SDS011;38224;50.950;4.100;2022-12-13T07:58:16;55.23;;;26.03;;
52268;SDS011;38224;50.950;4.100;2022-12-13T08:00:42;60.40;;;26.02;;
52268;SDS011;38224;50.950;4.100;2022-12-13T08:03:07;56.20;;;24.33;;
52268;SDS011;38224;50.950;4.100;2022-12-13T08:05:33;48.75;;;24.10;;
52268;SDS011;38224;50.950;4.100;2022-12-13T08:07:59;56.88;;;25.98;;
52268;SDS011;38224;50.950;4.100;2022-12-13T08:10:24;59.33;;;24.75;;
52268;SDS011;38224;50.950;4.100;2022-12-13T08:12:49;52.50;;;25.85;;
52268;SDS011;38224;50.950;4.100;2022-12-13T08:15:15;57.22;;;25.65;;
52268;SDS011;38224;50.950;4.100;2022-12-13T08:17:41;54.75;;;24.30;;
52268;SDS011;38224;50.950;4.100;2022-12-13T08:20:06;50.88;;;24.05;;
52268;SDS011;38224;50.950;4.100;2022-12-13T08:22:32;52.25;;;24.25;;
52268;SDS011;38224;50.950;4.100;2022-12-13T08:24:57;50.10;;;23.90;;
52268;SDS011;38224;50.950;4.100;2022-12-13T08:27:22;54.95;;;23.75;;
52268;SDS011;38224;50.950;4.100;2022-12-13T08:29:47;55.25;;;25.02;;
52268;SDS011;38224;50.950;4.100;2022-12-13T08:32:12;51.38;;;23.10;;
52268;SDS011;38224;50.950;4.100;2022-12-13T08:34:38;47.95;;;22.42;;
52268;SDS011;38224;50.950;4.100;2022-12-13T08:37:03;51.25;;;22.13;;
52268;SDS011;38224;50.950;4.100;2022-12-13T08:39:30;44.42;;;21.40;;
52268;SDS011;38224;50.950;4.100;2022-12-13T08:41:55;49.28;;;22.38;;
52268;SDS011;38224;50.950;4.100;2022-12-13T08:44:20;43.50;;;21.02;;
52268;SDS011;38224;50.950;4.100;2022-12-13T08:46:45;51.07;;;24.70;;
52268;SDS011;38224;50.950;4.100;2022-12-13T08:49:11;50.03;;;24.03;;
52268;SDS011;38224;50.950;4.100;2022-12-13T08:51:36;51.40;;;23.67;;
52268;SDS011;38224;50.950;4.100;2022-12-13T08:54:01;43.97;;;22.50;;
52268;SDS011;38224;50.950;4.100;2022-12-13T08:56:26;47.63;;;23.50;;
52268;SDS011;38224;50.950;4.100;2022-12-13T08:58:52;45.58;;;23.48;;
52268;SDS011;38224;50.950;4.100;2022-12-13T09:01:17;44.20;;;22.50;;
52268;SDS011;38224;50.950;4.100;2022-12-13T09:03:42;52.78;;;24.50;;
52268;SDS011;38224;50.950;4.100;2022-12-13T09:06:12;45.92;;;21.95;;
52268;SDS011;38224;50.950;4.100;2022-12-13T09:08:38;46.40;;;22.23;;
52268;SDS011;38224;50.950;4.100;2022-12-13T09:11:04;42.60;;;22.70;;
52268;SDS011;38224;50.950;4.100;2022-12-13T09:13:30;48.50;;;23.20;;
52268;SDS011;38224;50.950;4.100;2022-12-13T09:15:56;42.85;;;23.23;;
52268;SDS011;38224;50.950;4.100;2022-12-13T09:18:21;48.72;;;25.10;;
52268;SDS011;38224;50.950;4.100;2022-12-13T09:20:47;43.42;;;22.38;;
52268;SDS011;38224;50.950;4.100;2022-12-13T09:23:12;50.72;;;23.55;;
52268;SDS011;38224;50.950;4.100;2022-12-13T09:25:38;40.67;;;21.23;;
52268;SDS011;38224;50.950;4.100;2022-12-13T09:28:04;50.70;;;23.73;;
52268;SDS011;38224;50.950;4.100;2022-12-13T09:30:30;44.42;;;21.77;;
52268;SDS011;38224;50.950;4.100;2022-12-13T09:32:56;39.28;;;21.67;;
52268;SDS011;38224;50.950;4.100;2022-12-13T09:35:21;44.77;;;21.90;;
52268;SDS011;38224;50.950;4.100;2022-12-13T09:37:46;42.22;;;21.92;;
52268;SDS011;38224;50.950;4.100;2022-12-13T09:40:17;38.73;;;20.93;;
52268;SDS011;38224;50.950;4.100;2022-12-13T09:42:44;41.15;;;20.23;;
52268;SDS011;38224;50.950;4.100;2022-12-13T09:45:12;41.38;;;21.13;;
52268;SDS011;38224;50.950;4.100;2022-12-13T09:47:38;37.95;;;20.77;;
52268;SDS011;38224;50.950;4.100;2022-12-13T09:50:06;40.10;;;20.95;;
52268;SDS011;38224;50.950;4.100;2022-12-13T09:52:36;46.72;;;20.27;;
52268;SDS011;38224;50.950;4.100;2022-12-13T09:55:03;39.95;;;20.92;;
52268;SDS011;38224;50.950;4.100;2022-12-13T09:57:31;45.50;;;21.67;;
52268;SDS011;38224;50.950;4.100;2022-12-13T09:59:57;43.80;;;20.07;;
52268;SDS011;38224;50.950;4.100;2022-12-13T10:02:31;50.42;;;23.30;;
52268;SDS011;38224;50.950;4.100;2022-12-13T10:05:17;41.30;;;21.20;;
52268;SDS011;38224;50.950;4.100;2022-12-13T10:07:43;39.97;;;21.00;;
52268;SDS011;38224;50.950;4.100;2022-12-13T10:10:08;42.30;;;21.20;;
52268;SDS011;38224;50.950;4.100;2022-12-13T10:12:35;43.70;;;20.73;;
52268;SDS011;38224;50.950;4.100;2022-12-13T10:15:01;44.58;;;20.65;;
52268;SDS011;38224;50.950;4.100;2022-12-13T10:17:31;46.58;;;22.77;;
52268;SDS011;38224;50.950;4.100;2022-12-13T10:19:57;37.28;;;21.55;;
52268;SDS011;38224;50.950;4.100;2022-12-13T10:22:22;44.60;;;19.55;;
52268;SDS011;38224;50.950;4.100;2022-12-13T10:24:52;40.08;;;20.90;;
52268;SDS011;38224;50.950;4.100;2022-12-13T10:27:26;38.80;;;20.52;;
52268;SDS011;38224;50.950;4.100;2022-12-13T10:32:20;38.65;;;20.85;;
52268;SDS011;38224;50.950;4.100;2022-12-13T10:34:46;40.55;;;21.00;;
52268;SDS011;38224;50.950;4.100;2022-12-13T10:37:27;47.97;;;21.80;;
52268;SDS011;38224;50.950;4.100;2022-12-13T10:39:53;46.55;;;20.85;;
52268;SDS011;38224;50.950;4.100;2022-12-13T10:42:19;44.15;;;21.23;;
52268;SDS011;38224;50.950;4.100;2022-12-13T10:44:44;40.42;;;20.38;;
52268;SDS011;38224;50.950;4.100;2022-12-13T10:47:20;38.25;;;19.88;;
52268;SDS011;38224;50.950;4.100;2022-12-13T10:49:53;39.67;;;19.67;;
52268;SDS011;38224;50.950;4.100;2022-12-13T10:54:50;33.60;;;17.00;;
52268;SDS011;38224;50.950;4.100;2022-12-13T10:57:16;35.72;;;17.77;;
52268;SDS011;38224;50.950;4.100;2022-12-13T10:59:41;36.75;;;17.45;;
52268;SDS011;38224;50.950;4.100;2022-12-13T11:04:52;31.30;;;18.20;;
52268;SDS011;38224;50.950;4.100;2022-12-13T11:09:46;35.60;;;18.98;;
52268;SDS011;38224;50.950;4.100;2022-12-13T11:12:15;34.60;;;17.17;;
52268;SDS011;38224;50.950;4.100;2022-12-13T11:14:52;30.75;;;17.13;;
52268;SDS011;38224;50.950;4.100;2022-12-13T11:17:20;32.70;;;18.70;;
52268;SDS011;38224;50.950;4.100;2022-12-13T11:19:47;29.27;;;17.70;;
52268;SDS011;38224;50.950;4.100;2022-12-13T11:24:51;36.00;;;18.40;;
52268;SDS011;38224;50.950;4.100;2022-12-13T11:34:47;36.30;;;19.08;;
52268;SDS011;38224;50.950;4.100;2022-12-13T11:37:35;32.53;;;18.60;;
52268;SDS011;38224;50.950;4.100;2022-12-13T11:40:12;36.08;;;18.45;;
52268;SDS011;38224;50.950;4.100;2022-12-13T11:50:17;46.88;;;20.02;;
52268;SDS011;38224;50.950;4.100;2022-12-13T11:52:45;33.35;;;18.63;;
52268;SDS011;38224;50.950;4.100;2022-12-13T11:55:14;38.47;;;19.75;;
52268;SDS011;38224;50.950;4.100;2022-12-13T11:57:43;38.08;;;19.15;;
52268;SDS011;38224;50.950;4.100;2022-12-13T12:02:42;46.03;;;22.13;;
52268;SDS011;38224;50.950;4.100;2022-12-13T12:05:16;43.70;;;21.00;;
52268;SDS011;38224;50.950;4.100;2022-12-13T12:07:44;46.53;;;21.67;;
52268;SDS011;38224;50.950;4.100;2022-12-13T12:10:17;44.10;;;20.77;;
52268;SDS011;38224;50.950;4.100;2022-12-13T12:12:46;40.33;;;20.75;;
52268;SDS011;38224;50.950;4.100;2022-12-13T12:15:17;41.00;;;20.98;;
52268;SDS011;38224;50.950;4.100;2022-12-13T12:17:44;37.15;;;19.70;;
52268;SDS011;38224;50.950;4.100;2022-12-13T12:20:12;45.97;;;20.57;;
52268;SDS011;38224;50.950;4.100;2022-12-13T12:22:39;43.40;;;20.02;;
52268;SDS011;38224;50.950;4.100;2022-12-13T12:28:15;36.58;;;19.05;;
52268;SDS011;38224;50.950;4.100;2022-12-13T12:35:58;38.20;;;20.63;;
52268;SDS011;38224;50.950;4.100;2022-12-13T12:44:00;34.60;;;19.17;;
52268;SDS011;38224;50.950;4.100;2022-12-13T12:49:28;43.70;;;22.35;;
52268;SDS011;38224;50.950;4.100;2022-12-13T12:54:45;41.13;;;20.50;;
52268;SDS011;38224;50.950;4.100;2022-12-13T13:02:38;37.50;;;19.73;;
52268;SDS011;38224;50.950;4.100;2022-12-13T13:05:11;41.55;;;20.70;;
52268;SDS011;38224;50.950;4.100;2022-12-13T13:07:38;38.17;;;20.60;;
52268;SDS011;38224;50.950;4.100;2022-12-13T13:10:05;39.88;;;21.08;;
52268;SDS011;38224;50.950;4.100;2022-12-13T13:12:32;42.85;;;21.92;;
52268;SDS011;38224;50.950;4.100;2022-12-13T13:15:14;38.83;;;20.30;;
52268;SDS011;38224;50.950;4.100;2022-12-13T13:17:46;40.67;;;20.60;;
52268;SDS011;38224;50.950;4.100;2022-12-13T13:20:19;41.20;;;19.67;;
52268;SDS011;38224;50.950;4.100;2022-12-13T13:27:35;39.23;;;20.00;;
52268;SDS011;38224;50.950;4.100;2022-12-13T13:30:05;47.17;;;19.52;;
52268;SDS011;38224;50.950;4.100;2022-12-13T13:32:30;38.78;;;20.45;;
52268;SDS011;38224;50.950;4.100;2022-12-13T13:35:44;40.90;;;20.42;;
52268;SDS011;38224;50.950;4.100;2022-12-13T13:38:02;40.67;;;19.83;;
52268;SDS011;38224;50.950;4.100;2022-12-13T13:40:32;47.15;;;21.95;;
52268;SDS011;38224;50.950;4.100;2022-12-13T13:45:26;40.78;;;19.85;;
52268;SDS011;38224;50.950;4.100;2022-12-13T13:47:58;41.25;;;20.35;;
52268;SDS011;38224;50.950;4.100;2022-12-13T13:50:53;41.45;;;20.90;;
52268;SDS011;38224;50.950;4.100;2022-12-13T14:21:51;41.90;;;21.03;;
52268;SDS011;38224;50.950;4.100;2022-12-13T14:24:22;41.42;;;22.05;;
52268;SDS011;38224;50.950;4.100;2022-12-13T14:26:54;37.97;;;19.17;;
52268;SDS011;38224;50.950;4.100;2022-12-13T14:29:23;36.08;;;19.00;;
52268;SDS011;38224;50.950;4.100;2022-12-13T14:31:50;37.03;;;19.15;;
52268;SDS011;38224;50.950;4.100;2022-12-13T14:34:18;39.38;;;19.02;;
52268;SDS011;38224;50.950;4.100;2022-12-13T14:36:44;39.20;;;18.20;;
52268;SDS011;38224;50.950;4.100;2022-12-13T14:39:21;40.22;;;18.83;;
52268;SDS011;38224;50.950;4.100;2022-12-13T14:41:48;39.15;;;17.42;;
52268;SDS011;38224;50.950;4.100;2022-12-13T14:44:14;35.75;;;17.35;;
52268;SDS011;38224;50.950;4.100;2022-12-13T14:46:49;40.20;;;19.70;;
52268;SDS011;38224;50.950;4.100;2022-12-13T14:49:15;45.88;;;21.25;;
52268;SDS011;38224;50.950;4.100;2022-12-13T14:51:40;40.97;;;19.35;;
52268;SDS011;38224;50.950;4.100;2022-12-13T14:54:06;38.87;;;19.20;;
52268;SDS011;38224;50.950;4.100;2022-12-13T14:56:31;41.42;;;19.27;;
52268;SDS011;38224;50.950;4.100;2022-12-13T14:59:01;46.60;;;19.60;;
52268;SDS011;38224;50.950;4.100;2022-12-13T15:01:28;48.33;;;20.50;;
52268;SDS011;38224;50.950;4.100;2022-12-13T15:04:14;36.97;;;19.58;;
52268;SDS011;38224;50.950;4.100;2022-12-13T15:06:39;39.33;;;19.65;;
52268;SDS011;38224;50.950;4.100;2022-12-13T15:09:08;40.90;;;20.52;;
52268;SDS011;38224;50.950;4.100;2022-12-13T15:11:34;41.95;;;20.17;;
52268;SDS011;38224;50.950;4.100;2022-12-13T15:14:00;42.13;;;19.23;;
52268;SDS011;38224;50.950;4.100;2022-12-13T15:16:26;46.35;;;20.67;;
52268;SDS011;38224;50.950;4.100;2022-12-13T15:21:56;44.40;;;19.48;;
52268;SDS011;38224;50.950;4.100;2022-12-13T15:24:26;38.13;;;19.02;;
52268;SDS011;38224;50.950;4.100;2022-12-13T15:26:54;36.25;;;19.02;;
52268;SDS011;38224;50.950;4.100;2022-12-13T15:29:20;42.55;;;19.65;;
52268;SDS011;38224;50.950;4.100;2022-12-13T15:31:46;49.42;;;21.40;;
52268;SDS011;38224;50.950;4.100;2022-12-13T15:34:19;42.30;;;21.08;;
52268;SDS011;38224;50.950;4.100;2022-12-13T15:36:45;41.00;;;21.90;;
52268;SDS011;38224;50.950;4.100;2022-12-13T15:39:10;49.70;;;20.40;;
52268;SDS011;38224;50.950;4.100;2022-12-13T15:41:40;45.63;;;19.05;;
52268;SDS011;38224;50.950;4.100;2022-12-13T15:44:22;50.00;;;22.15;;
52268;SDS011;38224;50.950;4.100;2022-12-13T15:46:49;47.95;;;23.48;;
52268;SDS011;38224;50.950;4.100;2022-12-13T15:49:31;53.25;;;24.73;;
52268;SDS011;38224;50.950;4.100;2022-12-13T15:51:59;49.97;;;22.92;;
52268;SDS011;38224;50.950;4.100;2022-12-13T15:54:26;52.78;;;25.30;;
52268;SDS011;38224;50.950;4.100;2022-12-13T15:59:24;59.45;;;28.25;;
52268;SDS011;38224;50.950;4.100;2022-12-13T16:01:50;64.40;;;29.85;;
52268;SDS011;38224;50.950;4.100;2022-12-13T16:04:19;66.38;;;30.30;;
52268;SDS011;38224;50.950;4.100;2022-12-13T16:06:46;76.18;;;32.42;;
52268;SDS011;38224;50.950;4.100;2022-12-13T16:09:15;71.28;;;31.88;;
52268;SDS011;38224;50.950;4.100;2022-12-13T16:11:46;70.28;;;32.58;;
52268;SDS011;38224;50.950;4.100;2022-12-13T16:14:26;73.05;;;33.15;;
52268;SDS011;38224;50.950;4.100;2022-12-13T16:17:08;71.13;;;32.85;;
52268;SDS011;38224;50.950;4.100;2022-12-13T16:19:34;71.43;;;30.50;;
52268;SDS011;38224;50.950;4.100;2022-12-13T16:21:59;79.20;;;33.50;;